You are not logged in, Click here to log in
機場資訊:ENTC Welcome to Taiwan Airways 台灣虛擬航空
ICAO: ENTC Country: Tromsø
Latitude: 69.6833 Longitude: 18.9189
Total Arrivals: 3 Total Departures: 2
Latest Arrival: FS25 (ENSB-ENTC)ALAN. LIU Latest Departure: FS12 (ENTC-ENGM)CHU. CHUHAO
Scenery: http://en.wikipedia.org/wiki/Stord_Airport%2C_S%C3%B8rstokken
METAR : ENTC 141820Z 24005KT 200V270 CAVOK M01/M03 Q1012 NOSIG RMK WIND 2600FT 19005KT

Tromsø Airport